Laura K. Moran — WDE3239 — position and weather

sailwx.info

Track history (hours):
 
Tides and Currents Weather Stations Pressure Air Temp Water Temp Dewpoint Dewpoint Depression Visibility Wind Speed Wind Dir Waves Ship Positions

Laura K. Moran

Owner: Moran Towing Corporation, New Canaan, CT. More information available from US FCC via Universal Licensing System and Coast Guard Vessel Documentation Center.

Last reported at 2018-Jul-21 13:28 UTC. Time now 2018-Jul-21 13:48 UTC.
Position N 32°05' W 081°04'.

Length 28 m; draft 4.2 m.

Type: Port tender. MMSI: 367336190.

Date/timePositionNaut miles runAvg speedWind from/ knotsBaromVisibWave heightAir tempDewpointWater temp
2018-Jul-21 13:28N 32°05' W 081°04'0 0.0
2018-Jul-21 12:58N 32°05' W 081°04'0 0.0
2018-Jul-21 12:28N 32°05' W 081°04'2 3.4
2018-Jul-21 12:00N 32°05' W 081°06'4 7.1
2018-Jul-21 11:29N 32°08' W 081°08'1 0.9
2018-Jul-21 10:50N 32°07' W 081°08'2 4.7
2018-Jul-21 10:30N 32°06' W 081°07'3 6.0
2018-Jul-21 10:00N 32°05' W 081°04'0 0.0
2018-Jul-21 09:26N 32°05' W 081°04'0 0.0
2018-Jul-21 08:56N 32°05' W 081°04'0 0.0
2018-Jul-21 08:26N 32°05' W 081°04'0 0.0
2018-Jul-21 07:50N 32°05' W 081°04'0 0.0
2018-Jul-21 07:20N 32°05' W 081°04'0 0.0
2018-Jul-21 06:56N 32°05' W 081°04'0 0.0
2018-Jul-21 06:26N 32°05' W 081°04'0 0.0
2018-Jul-21 05:56N 32°05' W 081°04'0 0.0
2018-Jul-21 05:20N 32°05' W 081°04'0 0.0
2018-Jul-21 04:56N 32°05' W 081°04'0 0.0
2018-Jul-21 04:26N 32°05' W 081°04'0 0.0
2018-Jul-21 03:56N 32°05' W 081°04'0 0.0
2018-Jul-21 03:28N 32°05' W 081°04'3 6.9
2018-Jul-21 03:00N 32°06' W 081°07'1 1.4
2018-Jul-21 02:30N 32°06' W 081°06'0 0.5
2018-Jul-21 01:59N 32°06' W 081°06'1 1.1
2018-Jul-21 01:29N 32°05' W 081°06'0 0.0
2018-Jul-21 00:59N 32°05' W 081°06'0 0.0
2018-Jul-21 00:23N 32°05' W 081°06'0 0.0
2018-Jul-20 23:59N 32°05' W 081°06'0 0.0
2018-Jul-20 23:29N 32°05' W 081°06'0 0.0
2018-Jul-20 22:59N 32°05' W 081°06'3 6.0
2018-Jul-20 22:31N 32°07' W 081°08'1 1.6
2018-Jul-20 22:00N 32°07' W 081°08'1 1.0
2018-Jul-20 21:27N 32°07' W 081°08'0 0.5
2018-Jul-20 21:00N 32°07' W 081°08'1 1.1
2018-Jul-20 20:30N 32°07' W 081°08'0 0.8
2018-Jul-20 19:58N 32°07' W 081°08'0 0.3
2018-Jul-20 19:28N 32°07' W 081°08'0 0.9
2018-Jul-20 18:58N 32°07' W 081°08'0 0.0
2018-Jul-20 18:10N 32°07' W 081°08'0 0.0
2018-Jul-20 17:52N 32°07' W 081°08'0 0.6
2018-Jul-20 17:31N 32°07' W 081°08'1 2.2
2018-Jul-20 16:59N 32°08' W 081°09'0 0.1
2018-Jul-20 16:30N 32°08' W 081°09'1 1.5
2018-Jul-20 15:59N 32°08' W 081°08'2 3.7
2018-Jul-20 15:30N 32°06' W 081°07'2 3.7
2018-Jul-20 15:00N 32°05' W 081°05'3 5.7
2018-Jul-20 14:30N 32°05' W 081°02'1 1.2
2018-Jul-20 14:00N 32°05' W 081°03'4 8.9
2018-Jul-20 13:30N 32°07' W 081°07'1 1.3
2018-Jul-20 12:59N 32°07' W 081°08'0 0.0
2018-Jul-20 12:23N 32°07' W 081°08'0 0.0
2018-Jul-20 11:53N 32°07' W 081°08'0 0.0
2018-Jul-20 11:23N 32°07' W 081°08'0 0.0
2018-Jul-20 10:59N 32°07' W 081°08'0 0.0
2018-Jul-20 10:29N 32°07' W 081°08'0 0.0
2018-Jul-20 10:00N 32°07' W 081°08'0 0.2
2018-Jul-20 09:27N 32°07' W 081°08'0 0.6
2018-Jul-20 08:59N 32°07' W 081°08'0 0.3
2018-Jul-20 08:30N 32°08' W 081°08'0 0.7
2018-Jul-20 08:00N 32°07' W 081°08'0 0.2
2018-Jul-20 07:30N 32°07' W 081°08'1 1.9
2018-Jul-20 06:54N 32°08' W 081°09'1 2.8
2018-Jul-20 06:29N 32°07' W 081°08'4 8.4
2018-Jul-20 06:00N 32°05' W 081°04'0 0.8
2018-Jul-20 05:28N 32°05' W 081°04'0 0.0
2018-Jul-20 04:58N 32°05' W 081°04'0 0.0
2018-Jul-20 04:28N 32°05' W 081°04'0 0.0
2018-Jul-20 03:58N 32°05' W 081°04'0 0.0
2018-Jul-20 03:28N 32°05' W 081°04'0 0.0
2018-Jul-20 02:52N 32°05' W 081°04'0 0.0
2018-Jul-20 02:28N 32°05' W 081°04'0 0.0
2018-Jul-20 01:52N 32°05' W 081°04'0 0.0
2018-Jul-20 01:22N 32°05' W 081°04'0 0.0
2018-Jul-20 00:52N 32°05' W 081°04'0 0.0
2018-Jul-20 00:28N 32°05' W 081°04'0 0.0
2018-Jul-19 23:58N 32°05' W 081°04'0 0.0
2018-Jul-19 23:28N 32°05' W 081°04'0 0.0
2018-Jul-19 22:58N 32°05' W 081°04'0 0.0
2018-Jul-19 22:22N 32°05' W 081°04'0 0.0
2018-Jul-19 21:58N 32°05' W 081°04'0 0.0
2018-Jul-19 21:28N 32°05' W 081°04'0 0.0
2018-Jul-19 20:48N 32°05' W 081°04'2 8.0
2018-Jul-19 20:30N 32°06' W 081°06'3 5.0
2018-Jul-19 19:55N 32°08' W 081°09'1 1.7
2018-Jul-19 19:16N 32°07' W 081°08'0 0.0
2018-Jul-19 18:58N 32°07' W 081°08'0 0.0
2018-Jul-19 18:28N 32°07' W 081°08'0 0.0
2018-Jul-19 17:58N 32°07' W 081°08'0 0.0
2018-Jul-19 17:28N 32°07' W 081°08'0 0.6
2018-Jul-19 17:00N 32°07' W 081°08'0 0.1
2018-Jul-19 16:28N 32°07' W 081°08'0 1.0
2018-Jul-19 15:59N 32°08' W 081°08'0 0.1
2018-Jul-19 15:12N 32°08' W 081°08'0 0.1
2018-Jul-19 15:00N 32°08' W 081°08'3 6.9
2018-Jul-19 14:30N 32°05' W 081°06'2 1.6
2018-Jul-19 13:30N 32°05' W 081°04'0 0.0
2018-Jul-19 13:00N 32°05' W 081°04'0 0.0
2018-Jul-19 12:30N 32°05' W 081°04'0 0.0
2018-Jul-19 12:00N 32°05' W 081°04'0 0.0
2018-Jul-19 11:30N 32°05' W 081°04'0 0.0
2018-Jul-19 10:54N 32°05' W 081°04'0 0.0
2018-Jul-19 10:23N 32°05' W 081°04'0 0.0
2018-Jul-19 09:59N 32°05' W 081°04'0 0.0
2018-Jul-19 09:29N 32°05' W 081°04'0 0.0
2018-Jul-19 08:47N 32°05' W 081°04'0 0.0
2018-Jul-19 08:29N 32°05' W 081°04'0 0.0
2018-Jul-19 07:59N 32°05' W 081°04'0 0.0
2018-Jul-19 07:29N 32°05' W 081°04'0 0.0
2018-Jul-19 06:53N 32°05' W 081°04'0 0.0
2018-Jul-19 06:29N 32°05' W 081°04'0 0.0
2018-Jul-19 05:59N 32°05' W 081°04'0 0.0
2018-Jul-19 05:29N 32°05' W 081°04'0 0.0
2018-Jul-19 04:59N 32°05' W 081°04'0 0.0
2018-Jul-19 04:29N 32°05' W 081°04'0 0.0
2018-Jul-19 03:59N 32°05' W 081°04'0 0.0
2018-Jul-19 03:29N 32°05' W 081°04'0 0.0
2018-Jul-19 02:59N 32°05' W 081°04'0 0.0
2018-Jul-19 02:29N 32°05' W 081°04'0 0.0
2018-Jul-19 01:59N 32°05' W 081°04'0 0.0
2018-Jul-19 01:29N 32°05' W 081°04'0 0.0
2018-Jul-19 00:59N 32°05' W 081°04'0 0.0
2018-Jul-19 00:29N 32°05' W 081°04'0 0.0
2018-Jul-18 23:59N 32°05' W 081°04'0 0.0
2018-Jul-18 23:29N 32°05' W 081°04'0 0.0
2018-Jul-18 22:58N 32°05' W 081°04'2 3.9
2018-Jul-18 22:22N 32°06' W 081°06'0 0.0
2018-Jul-18 21:58N 32°06' W 081°06'0 0.0
2018-Jul-18 21:22N 32°06' W 081°06'0 0.0
2018-Jul-18 20:58N 32°06' W 081°06'0 0.0
2018-Jul-18 20:28N 32°06' W 081°06'0 0.0
2018-Jul-18 19:58N 32°06' W 081°06'0 0.0
2018-Jul-18 19:28N 32°06' W 081°06'0 0.1
2018-Jul-18 19:00N 32°06' W 081°06'2 4.5
2018-Jul-18 18:30N 32°05' W 081°04'0 0.4
2018-Jul-18 17:55N 32°05' W 081°04'0 0.0
2018-Jul-18 17:25N 32°05' W 081°04'0 0.0
2018-Jul-18 17:00N 32°05' W 081°04'0 0.0
2018-Jul-18 16:30N 32°05' W 081°04'0 0.0
2018-Jul-18 16:00N 32°05' W 081°04'0 0.0
2018-Jul-18 15:30N 32°05' W 081°04'3 5.4
2018-Jul-18 15:00N 32°06' W 081°07'3 5.0
2018-Jul-18 14:23N 32°09' W 081°09'1 1.4
2018-Jul-18 13:30N 32°07' W 081°08'3 5.7
2018-Jul-18 13:00N 32°05' W 081°06'2 3.3
2018-Jul-18 12:28N 32°05' W 081°04'0 0.0
2018-Jul-18 11:40N 32°05' W 081°04'0 0.0
2018-Jul-18 11:28N 32°05' W 081°04'0 0.0
2018-Jul-18 10:28N 32°05' W 081°04'0 0.0
2018-Jul-18 09:58N 32°05' W 081°04'0 0.0
2018-Jul-18 09:28N 32°05' W 081°04'0 0.0
2018-Jul-18 08:58N 32°05' W 081°04'0 0.0
2018-Jul-18 08:22N 32°05' W 081°04'0 0.0
2018-Jul-18 07:58N 32°05' W 081°04'0 0.0
2018-Jul-18 07:28N 32°05' W 081°04'0 0.0
2018-Jul-18 06:52N 32°05' W 081°04'0 0.0
2018-Jul-18 06:18N 32°05' W 081°04'0 0.0
2018-Jul-18 05:57N 32°05' W 081°04'0 0.0
2018-Jul-18 05:27N 32°05' W 081°04'0 0.0
2018-Jul-18 04:57N 32°05' W 081°04'0 0.0
2018-Jul-18 04:27N 32°05' W 081°04'0 0.0
2018-Jul-18 03:51N 32°05' W 081°04'0 0.0
2018-Jul-18 03:30N 32°05' W 081°04'0 0.0
2018-Jul-18 02:59N 32°05' W 081°04'0 0.0
2018-Jul-18 02:28N 32°05' W 081°04'0 0.0
2018-Jul-18 01:58N 32°05' W 081°04'0 0.0
2018-Jul-18 01:28N 32°05' W 081°04'0 0.0
2018-Jul-18 00:58N 32°05' W 081°04'0 0.0
2018-Jul-18 00:28N 32°05' W 081°04'0 0.0
2018-Jul-17 23:58N 32°05' W 081°04'0 0.0
2018-Jul-17 23:28N 32°05' W 081°04'0 0.0
2018-Jul-17 22:58N 32°05' W 081°04'0 0.0
2018-Jul-17 22:28N 32°05' W 081°04'0 0.0
2018-Jul-17 21:58N 32°05' W 081°04'0 0.0
2018-Jul-17 21:28N 32°05' W 081°04'0 0.0
2018-Jul-17 20:58N 32°05' W 081°04'0 0.0
2018-Jul-17 20:28N 32°05' W 081°04'0 0.0
2018-Jul-17 19:58N 32°05' W 081°04'1 1.8
2018-Jul-17 19:30N 32°05' W 081°05'4 9.0
2018-Jul-17 19:00N 32°08' W 081°08'0 0.3
2018-Jul-17 18:25N 32°08' W 081°08'1 2.1
2018-Jul-17 18:00N 32°07' W 081°08'2 4.3
2018-Jul-17 17:30N 32°06' W 081°07'2 3.9
2018-Jul-17 16:57N 32°05' W 081°04'1 2.4
2018-Jul-17 16:30N 32°05' W 081°05'4 7.0
2018-Jul-17 15:59N 32°08' W 081°08'1 2.1
2018-Jul-17 15:29N 32°07' W 081°08'2 3.0
2018-Jul-17 14:51N 32°05' W 081°06'1 2.8
2018-Jul-17 14:30N 32°05' W 081°05'1 1.4
2018-Jul-17 13:56N 32°05' W 081°06'0 0.0
2018-Jul-17 13:14N 32°05' W 081°06'0 0.0
2018-Jul-17 12:56N 32°05' W 081°06'0 0.0
2018-Jul-17 12:20N 32°05' W 081°06'0 0.0
2018-Jul-17 11:50N 32°05' W 081°06'0 0.0
2018-Jul-17 11:26N 32°05' W 081°06'1 3.3
2018-Jul-17 11:01N 32°06' W 081°07'2 3.3
2018-Jul-17 10:30N 32°08' W 081°08'0 0.6
2018-Jul-17 09:50N 32°07' W 081°08'1 4.6
2018-Jul-17 09:30N 32°06' W 081°07'3 4.9
2018-Jul-17 08:55N 32°05' W 081°04'0 0.0
2018-Jul-17 08:19N 32°05' W 081°04'0 0.0
2018-Jul-17 07:55N 32°05' W 081°04'0 0.0
2018-Jul-17 07:25N 32°05' W 081°04'0 0.0
2018-Jul-17 06:55N 32°05' W 081°04'0 0.0
2018-Jul-17 06:25N 32°05' W 081°04'0 0.0
2018-Jul-17 05:55N 32°05' W 081°04'0 0.0
2018-Jul-17 05:25N 32°05' W 081°04'0 0.0
2018-Jul-17 04:49N 32°05' W 081°04'0 0.0
2018-Jul-17 04:13N 32°05' W 081°04'0 0.0
2018-Jul-17 03:49N 32°05' W 081°04'0 0.0
2018-Jul-17 03:25N 32°05' W 081°04'0 0.0
2018-Jul-17 02:49N 32°05' W 081°04'0 0.0
2018-Jul-17 01:55N 32°05' W 081°04'0 0.0
2018-Jul-17 01:25N 32°05' W 081°04'0 0.0
2018-Jul-17 00:49N 32°05' W 081°04'0 0.0
2018-Jul-17 00:25N 32°05' W 081°04'0 0.0
2018-Jul-16 23:25N 32°05' W 081°04'0 0.0
2018-Jul-16 22:55N 32°05' W 081°04'0 0.0
2018-Jul-16 22:25N 32°05' W 081°04'0 0.0
2018-Jul-16 21:55N 32°05' W 081°04'0 0.0
2018-Jul-16 21:27N 32°05' W 081°04'3 5.8
2018-Jul-16 21:01N 32°06' W 081°07'2 3.4
2018-Jul-16 20:29N 32°07' W 081°08'1 2.9
2018-Jul-16 20:00N 32°06' W 081°07'0 0.8
2018-Jul-16 19:30N 32°07' W 081°07'1 1.9
2018-Jul-16 18:58N 32°07' W 081°08'0 0.6
2018-Jul-16 18:30N 32°08' W 081°08'2 4.9
2018-Jul-16 18:00N 32°06' W 081°06'2 3.3
2018-Jul-16 17:25N 32°07' W 081°08'0 0.0
2018-Jul-16 16:49N 32°07' W 081°08'0 1.3
2018-Jul-16 16:30N 32°08' W 081°08'1 1.2
2018-Jul-16 15:58N 32°08' W 081°08'3 6.1
2018-Jul-16 15:30N 32°06' W 081°07'3 4.3
2018-Jul-16 14:55N 32°05' W 081°04'3 6.3
2018-Jul-16 14:30N 32°06' W 081°07'3 4.6
2018-Jul-16 13:57N 32°08' W 081°08'0 0.7
2018-Jul-16 13:29N 32°08' W 081°09'0 0.2
2018-Jul-16 12:59N 32°08' W 081°09'4 8.5
2018-Jul-16 12:29N 32°05' W 081°05'1 2.4
2018-Jul-16 11:57N 32°05' W 081°04'0 0.0
2018-Jul-16 11:27N 32°05' W 081°04'0 0.0
2018-Jul-16 10:57N 32°05' W 081°04'0 0.0
2018-Jul-16 10:27N 32°05' W 081°04'0 0.0
2018-Jul-16 09:57N 32°05' W 081°04'0 0.0
2018-Jul-16 09:21N 32°05' W 081°04'0 0.0
2018-Jul-16 08:57N 32°05' W 081°04'0 0.0
2018-Jul-16 08:27N 32°05' W 081°04'0 0.0
2018-Jul-16 07:57N 32°05' W 081°04'0 0.0
2018-Jul-16 06:45N 32°05' W 081°04'0 0.0
2018-Jul-16 06:27N 32°05' W 081°04'0 0.0
2018-Jul-16 05:51N 32°05' W 081°04'0 0.0
2018-Jul-16 05:27N 32°05' W 081°04'0 0.0
2018-Jul-16 04:57N 32°05' W 081°04'0 0.0
2018-Jul-16 04:27N 32°05' W 081°04'0 0.0
2018-Jul-16 03:39N 32°05' W 081°04'0 0.0
2018-Jul-16 03:27N 32°05' W 081°04'0 0.0
2018-Jul-16 02:57N 32°05' W 081°04'0 0.0
2018-Jul-16 02:27N 32°05' W 081°04'0 0.0
2018-Jul-16 01:57N 32°05' W 081°04'0 0.0
2018-Jul-16 01:27N 32°05' W 081°04'0 0.0
2018-Jul-16 00:59N 32°05' W 081°04'3 5.0
2018-Jul-16 00:25N 32°06' W 081°07'0 0.0
2018-Jul-15 23:43N 32°06' W 081°07'0 0.7
2018-Jul-15 23:29N 32°06' W 081°07'2 5.1
2018-Jul-15 23:00N 32°05' W 081°04'0 0.7
2018-Jul-15 22:29N 32°05' W 081°04'0 0.0
2018-Jul-15 21:53N 32°05' W 081°04'0 0.0
2018-Jul-15 21:29N 32°05' W 081°04'0 0.0
2018-Jul-15 20:59N 32°05' W 081°04'0 0.0
2018-Jul-15 20:17N 32°05' W 081°04'0 0.0
2018-Jul-15 19:59N 32°05' W 081°04'0 0.0
2018-Jul-15 19:29N 32°05' W 081°04'0 0.0
2018-Jul-15 18:59N 32°05' W 081°04'0 0.0
2018-Jul-15 18:29N 32°05' W 081°04'0 0.0
2018-Jul-15 17:59N 32°05' W 081°04'0 0.0
2018-Jul-15 17:29N 32°05' W 081°04'1 2.5
2018-Jul-15 17:00N 32°05' W 081°05'4 6.5
2018-Jul-15 16:21N 32°08' W 081°08'1 3.0
2018-Jul-15 15:57N 32°07' W 081°08'2 4.9
2018-Jul-15 15:30N 32°05' W 081°06'3 5.4
2018-Jul-15 15:00N 32°05' W 081°03'0 0.1
2018-Jul-15 14:30N 32°05' W 081°03'1 1.4
2018-Jul-15 14:00N 32°05' W 081°04'0 0.0
2018-Jul-15 13:16N 32°05' W 081°04'0 0.0
2018-Jul-15 12:58N 32°05' W 081°04'0 0.0
2018-Jul-15 12:28N 32°05' W 081°04'0 0.0
2018-Jul-15 11:58N 32°05' W 081°04'0 0.0
2018-Jul-15 11:22N 32°05' W 081°04'0 0.0
2018-Jul-15 10:58N 32°05' W 081°04'0 0.0
2018-Jul-15 10:22N 32°05' W 081°04'0 0.0
2018-Jul-15 09:58N 32°05' W 081°04'0 0.0
2018-Jul-15 09:22N 32°05' W 081°04'0 0.0
2018-Jul-15 08:58N 32°05' W 081°04'0 0.0
2018-Jul-15 08:28N 32°05' W 081°04'0 0.0
2018-Jul-15 07:58N 32°05' W 081°04'0 0.0
2018-Jul-15 07:22N 32°05' W 081°04'0 0.0
2018-Jul-15 06:52N 32°05' W 081°04'0 0.0
2018-Jul-15 06:20N 32°05' W 081°04'3 9.7
2018-Jul-15 06:00N 32°06' W 081°07'1 2.4
2018-Jul-15 05:26N 32°07' W 081°08'0 0.0
2018-Jul-15 04:55N 32°07' W 081°08'0 0.0
2018-Jul-15 04:25N 32°07' W 081°08'0 0.0
2018-Jul-15 03:55N 32°07' W 081°08'0 0.0
2018-Jul-15 03:25N 32°07' W 081°08'0 0.0
2018-Jul-15 02:55N 32°07' W 081°08'0 0.0
2018-Jul-15 02:25N 32°07' W 081°08'0 0.4
2018-Jul-15 02:00N 32°08' W 081°08'0 0.3
2018-Jul-15 01:21N 32°07' W 081°08'0 0.3
2018-Jul-15 00:50N 32°07' W 081°08'0 0.0
2018-Jul-15 00:26N 32°07' W 081°08'0 0.7
2018-Jul-15 00:00N 32°08' W 081°08'0 0.5
2018-Jul-14 23:27N 32°08' W 081°08'0 0.0
2018-Jul-14 22:57N 32°08' W 081°08'0 0.5
2018-Jul-14 22:29N 32°08' W 081°08'0 0.2
2018-Jul-14 21:57N 32°08' W 081°09'4 8.2
2018-Jul-14 21:30N 32°05' W 081°06'2 3.1
2018-Jul-14 20:56N 32°05' W 081°04'0 0.0
2018-Jul-14 20:20N 32°05' W 081°04'0 0.0
2018-Jul-14 19:56N 32°05' W 081°04'0 0.0
2018-Jul-14 19:26N 32°05' W 081°04'0 0.0
2018-Jul-14 18:56N 32°05' W 081°04'0 0.0
2018-Jul-14 18:26N 32°05' W 081°04'0 0.0
2018-Jul-14 17:56N 32°05' W 081°04'0 0.0
2018-Jul-14 17:26N 32°05' W 081°04'0 0.0
2018-Jul-14 16:56N 32°05' W 081°04'2 4.8
2018-Jul-14 16:29N 32°06' W 081°06'2 4.3
2018-Jul-14 15:57N 32°07' W 081°08'0 0.4
2018-Jul-14 15:30N 32°07' W 081°08'2 4.0
2018-Jul-14 15:00N 32°06' W 081°06'0 0.1
2018-Jul-14 13:57N 32°06' W 081°06'0 0.0
2018-Jul-14 13:21N 32°06' W 081°06'0 0.0
2018-Jul-14 12:57N 32°06' W 081°06'0 0.0
2018-Jul-14 12:27N 32°06' W 081°06'0 0.0
2018-Jul-14 11:57N 32°06' W 081°06'2 5.2
2018-Jul-14 11:30N 32°07' W 081°08'0 0.2
2018-Jul-14 10:59N 32°08' W 081°08'1 1.2
2018-Jul-14 10:30N 32°08' W 081°08'3 5.2
2018-Jul-14 10:00N 32°06' W 081°07'3 6.0
2018-Jul-14 09:30N 32°05' W 081°03'0 0.8
2018-Jul-14 08:59N 32°05' W 081°04'0 0.0
2018-Jul-14 08:27N 32°05' W 081°04'0 0.0
2018-Jul-14 07:57N 32°05' W 081°04'0 0.0
2018-Jul-14 07:27N 32°05' W 081°04'0 0.0
2018-Jul-14 06:51N 32°05' W 081°04'0 0.0
2018-Jul-14 06:27N 32°05' W 081°04'0 0.0
2018-Jul-14 05:57N 32°05' W 081°04'0 0.0
2018-Jul-14 05:09N 32°05' W 081°04'0 0.0
2018-Jul-14 04:57N 32°05' W 081°04'0 0.0
2018-Jul-14 04:27N 32°05' W 081°04'0 0.0
2018-Jul-14 03:57N 32°05' W 081°04'0 0.0
2018-Jul-14 03:27N 32°05' W 081°04'0 0.0
2018-Jul-14 02:57N 32°05' W 081°04'0 0.0
2018-Jul-14 02:21N 32°05' W 081°04'0 0.0
2018-Jul-14 01:39N 32°05' W 081°04'0 0.0
2018-Jul-14 01:21N 32°05' W 081°04'0 0.0
2018-Jul-14 00:51N 32°05' W 081°04'0 0.0
2018-Jul-14 00:27N 32°05' W 081°04'0 0.0
2018-Jul-13 23:51N 32°05' W 081°04'0 0.0
2018-Jul-13 23:25N 32°05' W 081°04'2 6.0
2018-Jul-13 23:00N 32°06' W 081°07'2 4.7
2018-Jul-13 22:30N 32°08' W 081°08'0 0.0
2018-Jul-13 21:57N 32°08' W 081°08'3 7.3
2018-Jul-13 21:30N 32°05' W 081°06'2 2.9
2018-Jul-13 20:55N 32°05' W 081°04'0 0.0
2018-Jul-13 20:27N 32°05' W 081°04'0 0.0
2018-Jul-13 19:57N 32°05' W 081°04'0 0.0
2018-Jul-13 19:27N 32°05' W 081°04'0 0.0
2018-Jul-13 18:45N 32°05' W 081°04'0 0.0
2018-Jul-13 18:27N 32°05' W 081°04'0 0.0
2018-Jul-13 17:57N 32°05' W 081°04'0 0.0
2018-Jul-13 17:27N 32°05' W 081°04'0 0.0
2018-Jul-13 16:57N 32°05' W 081°04'0 0.0
2018-Jul-13 16:26N 32°05' W 081°04'4 8.7
2018-Jul-13 16:00N 32°07' W 081°08'1 1.6
2018-Jul-13 15:14N 32°08' W 081°08'0 1.2
2018-Jul-13 15:01N 32°08' W 081°08'4 4.2
2018-Jul-13 14:00N 32°05' W 081°05'1 1.3
2018-Jul-13 13:25N 32°05' W 081°04'0 0.0
2018-Jul-13 12:55N 32°05' W 081°04'0 0.0
2018-Jul-13 12:19N 32°05' W 081°04'0 0.0
2018-Jul-13 11:55N 32°05' W 081°04'0 0.0
2018-Jul-13 11:19N 32°05' W 081°04'0 0.0
2018-Jul-13 10:49N 32°05' W 081°04'0 0.5
2018-Jul-13 10:30N 32°05' W 081°04'1 1.5
2018-Jul-13 09:53N 32°05' W 081°03'2 6.0
2018-Jul-13 09:29N 32°05' W 081°06'4 3.9
2018-Jul-13 08:31N 32°08' W 081°09'0 0.1
2018-Jul-13 08:25N 32°08' W 081°09'0 0.0
2018-Jul-13 07:55N 32°08' W 081°09'0 0.0
2018-Jul-13 07:27N 32°08' W 081°09'0 0.6
2018-Jul-13 07:00N 32°08' W 081°08'0 0.7
2018-Jul-13 06:17N 32°07' W 081°08'0 0.4
2018-Jul-13 06:00N 32°07' W 081°08'2 4.5
2018-Jul-13 05:30N 32°06' W 081°06'2 4.2
2018-Jul-13 05:00N 32°07' W 081°08'1 2.1
2018-Jul-13 04:25N 32°08' W 081°09'3 6.1
2018-Jul-13 04:00N 32°06' W 081°07'3 5.7
2018-Jul-13 03:29N 32°05' W 081°04'0 0.0
2018-Jul-13 02:53N 32°05' W 081°04'0 0.0
2018-Jul-13 02:28N 32°05' W 081°04'0 0.0
2018-Jul-13 01:34N 32°05' W 081°04'0 0.0
2018-Jul-13 01:28N 32°05' W 081°04'0 0.0
2018-Jul-13 00:58N 32°05' W 081°04'0 0.0
2018-Jul-13 00:28N 32°05' W 081°04'0 0.0
2018-Jul-12 23:58N 32°05' W 081°04'0 0.0
2018-Jul-12 23:28N 32°05' W 081°04'0 0.0
2018-Jul-12 22:58N 32°05' W 081°04'0 0.0
2018-Jul-12 22:16N 32°05' W 081°04'0 0.0
2018-Jul-12 21:58N 32°05' W 081°04'0 0.0
2018-Jul-12 21:22N 32°05' W 081°04'0 0.0
2018-Jul-12 20:58N 32°05' W 081°04'0 0.0
2018-Jul-12 20:22N 32°05' W 081°04'0 0.0
2018-Jul-12 19:58N 32°05' W 081°04'0 0.0
2018-Jul-12 19:16N 32°05' W 081°04'0 0.0
2018-Jul-12 18:58N 32°05' W 081°04'0 0.0
2018-Jul-12 18:28N 32°05' W 081°04'0 0.0
2018-Jul-12 17:52N 32°05' W 081°04'0 0.0
2018-Jul-12 17:28N 32°05' W 081°04'0 0.0
2018-Jul-12 16:52N 32°05' W 081°04'0 0.0
2018-Jul-12 16:28N 32°05' W 081°04'0 0.0
2018-Jul-12 15:59N 32°05' W 081°04'4 8.3
2018-Jul-12 15:30N 32°07' W 081°08'1 1.2
2018-Jul-12 14:53N 32°08' W 081°08'0 0.4
2018-Jul-12 14:30N 32°08' W 081°08'2 4.1
2018-Jul-12 14:01N 32°06' W 081°07'1 1.1
2018-Jul-12 13:21N 32°06' W 081°06'0 0.0
2018-Jul-12 12:57N 32°06' W 081°06'0 0.0
2018-Jul-12 12:15N 32°06' W 081°06'0 0.0
2018-Jul-12 11:57N 32°06' W 081°06'0 0.0
2018-Jul-12 11:23N 32°06' W 081°06'2 4.9
2018-Jul-12 10:57N 32°07' W 081°08'1 1.2
2018-Jul-12 10:29N 32°07' W 081°07'2 4.3
2018-Jul-12 10:00N 32°05' W 081°06'1 1.5
2018-Jul-12 09:30N 32°06' W 081°06'2 1.4
2018-Jul-12 08:17N 32°07' W 081°08'0 0.0
2018-Jul-12 07:59N 32°07' W 081°08'0 0.0
2018-Jul-12 07:29N 32°07' W 081°08'0 0.0
2018-Jul-12 06:23N 32°07' W 081°08'0 0.0
2018-Jul-12 04:47N 32°07' W 081°08'0 0.0
2018-Jul-12 04:29N 32°07' W 081°08'0 0.0
2018-Jul-12 03:53N 32°07' W 081°08'0 0.0
2018-Jul-12 03:25N 32°07' W 081°08'0 0.0
2018-Jul-12 02:55N 32°07' W 081°08'0 0.0
2018-Jul-12 02:19N 32°07' W 081°08'1 3.4
2018-Jul-12 02:00N 32°08' W 081°08'0 0.1
2018-Jul-12 01:14N 32°08' W 081°08'1 3.2
2018-Jul-12 01:00N 32°07' W 081°08'3 5.4
2018-Jul-12 00:30N 32°05' W 081°06'3 5.9
2018-Jul-12 00:00N 32°05' W 081°02'1 1.9
2018-Jul-11 23:25N 32°05' W 081°04'0 0.0
2018-Jul-11 22:51N 32°05' W 081°04'0 0.0
2018-Jul-11 22:21N 32°05' W 081°04'0 0.0
2018-Jul-11 21:57N 32°05' W 081°04'0 0.0
2018-Jul-11 21:27N 32°05' W 081°04'0 0.0
2018-Jul-11 20:57N 32°05' W 081°04'0 0.0
2018-Jul-11 20:27N 32°05' W 081°04'0 0.0
2018-Jul-11 19:57N 32°05' W 081°04'0 0.0
2018-Jul-11 19:27N 32°05' W 081°04'0 0.0
2018-Jul-11 18:51N 32°05' W 081°04'0 0.0
2018-Jul-11 18:26N 32°05' W 081°04'0 0.0
2018-Jul-11 17:56N 32°05' W 081°04'0 0.0
2018-Jul-11 17:20N 32°05' W 081°04'0 0.0
2018-Jul-11 16:56N 32°05' W 081°04'0 0.0
2018-Jul-11 16:26N 32°05' W 081°04'0 0.0
2018-Jul-11 15:56N 32°05' W 081°04'0 0.0
2018-Jul-11 15:26N 32°05' W 081°04'0 0.0
2018-Jul-11 14:56N 32°05' W 081°04'0 0.0
2018-Jul-11 14:26N 32°05' W 081°04'0 0.0
2018-Jul-11 13:56N 32°05' W 081°04'  
Track history (hours):
 
Tides and Currents Weather Stations Pressure Air Temp Water Temp Dewpoint Dewpoint Depression Visibility Wind Speed Wind Dir Waves Ship Positions

Laura K. Moran

Owner: Moran Towing Corporation, New Canaan, CT. More information available from US FCC via Universal Licensing System and Coast Guard Vessel Documentation Center.

Last reported at 2018-Jul-21 13:28 UTC. Time now 2018-Jul-21 13:48 UTC.
Position N 32°05' W 081°04'.

Length 28 m; draft 4.2 m.

Type: Port tender. MMSI: 367336190.

Date/timePositionNaut miles runAvg speedWind from/ knotsBaromVisibWave heightAir tempDewpointWater temp
2018-Jul-21 13:28N 32°05' W 081°04'0 0.0
2018-Jul-21 12:58N 32°05' W 081°04'0 0.0
2018-Jul-21 12:28N 32°05' W 081°04'2 3.4
2018-Jul-21 12:00N 32°05' W 081°06'4 7.1
2018-Jul-21 11:29N 32°08' W 081°08'1 0.9
2018-Jul-21 10:50N 32°07' W 081°08'2 4.7
2018-Jul-21 10:30N 32°06' W 081°07'3 6.0
2018-Jul-21 10:00N 32°05' W 081°04'0 0.0
2018-Jul-21 09:26N 32°05' W 081°04'0 0.0
2018-Jul-21 08:56N 32°05' W 081°04'0 0.0
2018-Jul-21 08:26N 32°05' W 081°04'0 0.0
2018-Jul-21 07:50N 32°05' W 081°04'0 0.0
2018-Jul-21 07:20N 32°05' W 081°04'0 0.0
2018-Jul-21 06:56N 32°05' W 081°04'0 0.0
2018-Jul-21 06:26N 32°05' W 081°04'0 0.0
2018-Jul-21 05:56N 32°05' W 081°04'0 0.0
2018-Jul-21 05:20N 32°05' W 081°04'0 0.0
2018-Jul-21 04:56N 32°05' W 081°04'0 0.0
2018-Jul-21 04:26N 32°05' W 081°04'0 0.0
2018-Jul-21 03:56N 32°05' W 081°04'0 0.0
2018-Jul-21 03:28N 32°05' W 081°04'3 6.9
2018-Jul-21 03:00N 32°06' W 081°07'1 1.4
2018-Jul-21 02:30N 32°06' W 081°06'0 0.5
2018-Jul-21 01:59N 32°06' W 081°06'1 1.1
2018-Jul-21 01:29N 32°05' W 081°06'0 0.0
2018-Jul-21 00:59N 32°05' W 081°06'0 0.0
2018-Jul-21 00:23N 32°05' W 081°06'0 0.0
2018-Jul-20 23:59N 32°05' W 081°06'0 0.0
2018-Jul-20 23:29N 32°05' W 081°06'0 0.0
2018-Jul-20 22:59N 32°05' W 081°06'3 6.0
2018-Jul-20 22:31N 32°07' W 081°08'1 1.6
2018-Jul-20 22:00N 32°07' W 081°08'1 1.0
2018-Jul-20 21:27N 32°07' W 081°08'0 0.5
2018-Jul-20 21:00N 32°07' W 081°08'1 1.1
2018-Jul-20 20:30N 32°07' W 081°08'0 0.8
2018-Jul-20 19:58N 32°07' W 081°08'0 0.3
2018-Jul-20 19:28N 32°07' W 081°08'0 0.9
2018-Jul-20 18:58N 32°07' W 081°08'0 0.0
2018-Jul-20 18:10N 32°07' W 081°08'0 0.0
2018-Jul-20 17:52N 32°07' W 081°08'0 0.6
2018-Jul-20 17:31N 32°07' W 081°08'1 2.2
2018-Jul-20 16:59N 32°08' W 081°09'0 0.1
2018-Jul-20 16:30N 32°08' W 081°09'1 1.5
2018-Jul-20 15:59N 32°08' W 081°08'2 3.7
2018-Jul-20 15:30N 32°06' W 081°07'2 3.7
2018-Jul-20 15:00N 32°05' W 081°05'3 5.7
2018-Jul-20 14:30N 32°05' W 081°02'1 1.2
2018-Jul-20 14:00N 32°05' W 081°03'4 8.9
2018-Jul-20 13:30N 32°07' W 081°07'1 1.3
2018-Jul-20 12:59N 32°07' W 081°08'0 0.0
2018-Jul-20 12:23N 32°07' W 081°08'0 0.0
2018-Jul-20 11:53N 32°07' W 081°08'0 0.0
2018-Jul-20 11:23N 32°07' W 081°08'0 0.0
2018-Jul-20 10:59N 32°07' W 081°08'0 0.0
2018-Jul-20 10:29N 32°07' W 081°08'0 0.0
2018-Jul-20 10:00N 32°07' W 081°08'0 0.2
2018-Jul-20 09:27N 32°07' W 081°08'0 0.6
2018-Jul-20 08:59N 32°07' W 081°08'0 0.3
2018-Jul-20 08:30N 32°08' W 081°08'0 0.7
2018-Jul-20 08:00N 32°07' W 081°08'0 0.2
2018-Jul-20 07:30N 32°07' W 081°08'1 1.9
2018-Jul-20 06:54N 32°08' W 081°09'1 2.8
2018-Jul-20 06:29N 32°07' W 081°08'4 8.4
2018-Jul-20 06:00N 32°05' W 081°04'0 0.8
2018-Jul-20 05:28N 32°05' W 081°04'0 0.0
2018-Jul-20 04:58N 32°05' W 081°04'0 0.0
2018-Jul-20 04:28N 32°05' W 081°04'0 0.0
2018-Jul-20 03:58N 32°05' W 081°04'0 0.0
2018-Jul-20 03:28N 32°05' W 081°04'0 0.0
2018-Jul-20 02:52N 32°05' W 081°04'0 0.0
2018-Jul-20 02:28N 32°05' W 081°04'0 0.0
2018-Jul-20 01:52N 32°05' W 081°04'0 0.0
2018-Jul-20 01:22N 32°05' W 081°04'0 0.0
2018-Jul-20 00:52N 32°05' W 081°04'0 0.0
2018-Jul-20 00:28N 32°05' W 081°04'0 0.0
2018-Jul-19 23:58N 32°05' W 081°04'0 0.0
2018-Jul-19 23:28N 32°05' W 081°04'0 0.0
2018-Jul-19 22:58N 32°05' W 081°04'0 0.0
2018-Jul-19 22:22N 32°05' W 081°04'0 0.0
2018-Jul-19 21:58N 32°05' W 081°04'0 0.0
2018-Jul-19 21:28N 32°05' W 081°04'0 0.0
2018-Jul-19 20:48N 32°05' W 081°04'2 8.0
2018-Jul-19 20:30N 32°06' W 081°06'3 5.0
2018-Jul-19 19:55N 32°08' W 081°09'1 1.7
2018-Jul-19 19:16N 32°07' W 081°08'0 0.0
2018-Jul-19 18:58N 32°07' W 081°08'0 0.0
2018-Jul-19 18:28N 32°07' W 081°08'0 0.0
2018-Jul-19 17:58N 32°07' W 081°08'0 0.0
2018-Jul-19 17:28N 32°07' W 081°08'0 0.6
2018-Jul-19 17:00N 32°07' W 081°08'0 0.1
2018-Jul-19 16:28N 32°07' W 081°08'0 1.0
2018-Jul-19 15:59N 32°08' W 081°08'0 0.1
2018-Jul-19 15:12N 32°08' W 081°08'0 0.1
2018-Jul-19 15:00N 32°08' W 081°08'3 6.9
2018-Jul-19 14:30N 32°05' W 081°06'2 1.6
2018-Jul-19 13:30N 32°05' W 081°04'0 0.0
2018-Jul-19 13:00N 32°05' W 081°04'0 0.0
2018-Jul-19 12:30N 32°05' W 081°04'0 0.0
2018-Jul-19 12:00N 32°05' W 081°04'0 0.0
2018-Jul-19 11:30N 32°05' W 081°04'0 0.0
2018-Jul-19 10:54N 32°05' W 081°04'0 0.0
2018-Jul-19 10:23N 32°05' W 081°04'0 0.0
2018-Jul-19 09:59N 32°05' W 081°04'0 0.0
2018-Jul-19 09:29N 32°05' W 081°04'0 0.0
2018-Jul-19 08:47N 32°05' W 081°04'0 0.0
2018-Jul-19 08:29N 32°05' W 081°04'0 0.0
2018-Jul-19 07:59N 32°05' W 081°04'0 0.0
2018-Jul-19 07:29N 32°05' W 081°04'0 0.0
2018-Jul-19 06:53N 32°05' W 081°04'0 0.0
2018-Jul-19 06:29N 32°05' W 081°04'0 0.0
2018-Jul-19 05:59N 32°05' W 081°04'0 0.0
2018-Jul-19 05:29N 32°05' W 081°04'0 0.0
2018-Jul-19 04:59N 32°05' W 081°04'0 0.0
2018-Jul-19 04:29N 32°05' W 081°04'0 0.0
2018-Jul-19 03:59N 32°05' W 081°04'0 0.0
2018-Jul-19 03:29N 32°05' W 081°04'0 0.0
2018-Jul-19 02:59N 32°05' W 081°04'0 0.0
2018-Jul-19 02:29N 32°05' W 081°04'0 0.0
2018-Jul-19 01:59N 32°05' W 081°04'0 0.0
2018-Jul-19 01:29N 32°05' W 081°04'0 0.0
2018-Jul-19 00:59N 32°05' W 081°04'0 0.0
2018-Jul-19 00:29N 32°05' W 081°04'0 0.0
2018-Jul-18 23:59N 32°05' W 081°04'0 0.0
2018-Jul-18 23:29N 32°05' W 081°04'0 0.0
2018-Jul-18 22:58N 32°05' W 081°04'2 3.9
2018-Jul-18 22:22N 32°06' W 081°06'0 0.0
2018-Jul-18 21:58N 32°06' W 081°06'0 0.0
2018-Jul-18 21:22N 32°06' W 081°06'0 0.0
2018-Jul-18 20:58N 32°06' W 081°06'0 0.0
2018-Jul-18 20:28N 32°06' W 081°06'0 0.0
2018-Jul-18 19:58N 32°06' W 081°06'0 0.0
2018-Jul-18 19:28N 32°06' W 081°06'0 0.1
2018-Jul-18 19:00N 32°06' W 081°06'2 4.5
2018-Jul-18 18:30N 32°05' W 081°04'0 0.4
2018-Jul-18 17:55N 32°05' W 081°04'0 0.0
2018-Jul-18 17:25N 32°05' W 081°04'0 0.0
2018-Jul-18 17:00N 32°05' W 081°04'0 0.0
2018-Jul-18 16:30N 32°05' W 081°04'0 0.0
2018-Jul-18 16:00N 32°05' W 081°04'0 0.0
2018-Jul-18 15:30N 32°05' W 081°04'3 5.4
2018-Jul-18 15:00N 32°06' W 081°07'3 5.0
2018-Jul-18 14:23N 32°09' W 081°09'1 1.4
2018-Jul-18 13:30N 32°07' W 081°08'3 5.7
2018-Jul-18 13:00N 32°05' W 081°06'2 3.3
2018-Jul-18 12:28N 32°05' W 081°04'0 0.0
2018-Jul-18 11:40N 32°05' W 081°04'0 0.0
2018-Jul-18 11:28N 32°05' W 081°04'0 0.0
2018-Jul-18 10:28N 32°05' W 081°04'0 0.0
2018-Jul-18 09:58N 32°05' W 081°04'0 0.0
2018-Jul-18 09:28N 32°05' W 081°04'0 0.0
2018-Jul-18 08:58N 32°05' W 081°04'0 0.0
2018-Jul-18 08:22N 32°05' W 081°04'0 0.0
2018-Jul-18 07:58N 32°05' W 081°04'0 0.0
2018-Jul-18 07:28N 32°05' W 081°04'0 0.0
2018-Jul-18 06:52N 32°05' W 081°04'0 0.0
2018-Jul-18 06:18N 32°05' W 081°04'0 0.0
2018-Jul-18 05:57N 32°05' W 081°04'0 0.0
2018-Jul-18 05:27N 32°05' W 081°04'0 0.0
2018-Jul-18 04:57N 32°05' W 081°04'0 0.0
2018-Jul-18 04:27N 32°05' W 081°04'0 0.0
2018-Jul-18 03:51N 32°05' W 081°04'0 0.0
2018-Jul-18 03:30N 32°05' W 081°04'0 0.0
2018-Jul-18 02:59N 32°05' W 081°04'0 0.0
2018-Jul-18 02:28N 32°05' W 081°04'0 0.0
2018-Jul-18 01:58N 32°05' W 081°04'0 0.0
2018-Jul-18 01:28N 32°05' W 081°04'0 0.0
2018-Jul-18 00:58N 32°05' W 081°04'0 0.0
2018-Jul-18 00:28N 32°05' W 081°04'0 0.0
2018-Jul-17 23:58N 32°05' W 081°04'0 0.0
2018-Jul-17 23:28N 32°05' W 081°04'0 0.0
2018-Jul-17 22:58N 32°05' W 081°04'0 0.0
2018-Jul-17 22:28N 32°05' W 081°04'0 0.0
2018-Jul-17 21:58N 32°05' W 081°04'0 0.0
2018-Jul-17 21:28N 32°05' W 081°04'0 0.0
2018-Jul-17 20:58N 32°05' W 081°04'0 0.0
2018-Jul-17 20:28N 32°05' W 081°04'0 0.0
2018-Jul-17 19:58N 32°05' W 081°04'1 1.8
2018-Jul-17 19:30N 32°05' W 081°05'4 9.0
2018-Jul-17 19:00N 32°08' W 081°08'0 0.3
2018-Jul-17 18:25N 32°08' W 081°08'1 2.1
2018-Jul-17 18:00N 32°07' W 081°08'2 4.3
2018-Jul-17 17:30N 32°06' W 081°07'2 3.9
2018-Jul-17 16:57N 32°05' W 081°04'1 2.4
2018-Jul-17 16:30N 32°05' W 081°05'4 7.0
2018-Jul-17 15:59N 32°08' W 081°08'1 2.1
2018-Jul-17 15:29N 32°07' W 081°08'2 3.0
2018-Jul-17 14:51N 32°05' W 081°06'1 2.8
2018-Jul-17 14:30N 32°05' W 081°05'1 1.4
2018-Jul-17 13:56N 32°05' W 081°06'0 0.0
2018-Jul-17 13:14N 32°05' W 081°06'0 0.0
2018-Jul-17 12:56N 32°05' W 081°06'0 0.0
2018-Jul-17 12:20N 32°05' W 081°06'0 0.0
2018-Jul-17 11:50N 32°05' W 081°06'0 0.0
2018-Jul-17 11:26N 32°05' W 081°06'1 3.3
2018-Jul-17 11:01N 32°06' W 081°07'2 3.3
2018-Jul-17 10:30N 32°08' W 081°08'0 0.6
2018-Jul-17 09:50N 32°07' W 081°08'1 4.6
2018-Jul-17 09:30N 32°06' W 081°07'3 4.9
2018-Jul-17 08:55N 32°05' W 081°04'0 0.0
2018-Jul-17 08:19N 32°05' W 081°04'0 0.0
2018-Jul-17 07:55N 32°05' W 081°04'0 0.0
2018-Jul-17 07:25N 32°05' W 081°04'0 0.0
2018-Jul-17 06:55N 32°05' W 081°04'0 0.0
2018-Jul-17 06:25N 32°05' W 081°04'0 0.0
2018-Jul-17 05:55N 32°05' W 081°04'0 0.0
2018-Jul-17 05:25N 32°05' W 081°04'0 0.0
2018-Jul-17 04:49N 32°05' W 081°04'0 0.0
2018-Jul-17 04:13N 32°05' W 081°04'0 0.0
2018-Jul-17 03:49N 32°05' W 081°04'0 0.0
2018-Jul-17 03:25N 32°05' W 081°04'0 0.0
2018-Jul-17 02:49N 32°05' W 081°04'0 0.0
2018-Jul-17 01:55N 32°05' W 081°04'0 0.0
2018-Jul-17 01:25N 32°05' W 081°04'0 0.0
2018-Jul-17 00:49N 32°05' W 081°04'0 0.0
2018-Jul-17 00:25N 32°05' W 081°04'0 0.0
2018-Jul-16 23:25N 32°05' W 081°04'0 0.0
2018-Jul-16 22:55N 32°05' W 081°04'0 0.0
2018-Jul-16 22:25N 32°05' W 081°04'0 0.0
2018-Jul-16 21:55N 32°05' W 081°04'0 0.0
2018-Jul-16 21:27N 32°05' W 081°04'3 5.8
2018-Jul-16 21:01N 32°06' W 081°07'2 3.4
2018-Jul-16 20:29N 32°07' W 081°08'1 2.9
2018-Jul-16 20:00N 32°06' W 081°07'0 0.8
2018-Jul-16 19:30N 32°07' W 081°07'1 1.9
2018-Jul-16 18:58N 32°07' W 081°08'0 0.6
2018-Jul-16 18:30N 32°08' W 081°08'2 4.9
2018-Jul-16 18:00N 32°06' W 081°06'2 3.3
2018-Jul-16 17:25N 32°07' W 081°08'0 0.0
2018-Jul-16 16:49N 32°07' W 081°08'0 1.3
2018-Jul-16 16:30N 32°08' W 081°08'1 1.2
2018-Jul-16 15:58N 32°08' W 081°08'3 6.1
2018-Jul-16 15:30N 32°06' W 081°07'3 4.3
2018-Jul-16 14:55N 32°05' W 081°04'3 6.3
2018-Jul-16 14:30N 32°06' W 081°07'3 4.6
2018-Jul-16 13:57N 32°08' W 081°08'0 0.7
2018-Jul-16 13:29N 32°08' W 081°09'0 0.2
2018-Jul-16 12:59N 32°08' W 081°09'4 8.5
2018-Jul-16 12:29N 32°05' W 081°05'1 2.4
2018-Jul-16 11:57N 32°05' W 081°04'0 0.0
2018-Jul-16 11:27N 32°05' W 081°04'0 0.0
2018-Jul-16 10:57N 32°05' W 081°04'0 0.0
2018-Jul-16 10:27N 32°05' W 081°04'0 0.0
2018-Jul-16 09:57N 32°05' W 081°04'0 0.0
2018-Jul-16 09:21N 32°05' W 081°04'0 0.0
2018-Jul-16 08:57N 32°05' W 081°04'0 0.0
2018-Jul-16 08:27N 32°05' W 081°04'0 0.0
2018-Jul-16 07:57N 32°05' W 081°04'0 0.0
2018-Jul-16 06:45N 32°05' W 081°04'0 0.0
2018-Jul-16 06:27N 32°05' W 081°04'0 0.0
2018-Jul-16 05:51N 32°05' W 081°04'0 0.0
2018-Jul-16 05:27N 32°05' W 081°04'0 0.0
2018-Jul-16 04:57N 32°05' W 081°04'0 0.0
2018-Jul-16 04:27N 32°05' W 081°04'0 0.0
2018-Jul-16 03:39N 32°05' W 081°04'0 0.0
2018-Jul-16 03:27N 32°05' W 081°04'0 0.0
2018-Jul-16 02:57N 32°05' W 081°04'0 0.0
2018-Jul-16 02:27N 32°05' W 081°04'0 0.0
2018-Jul-16 01:57N 32°05' W 081°04'0 0.0
2018-Jul-16 01:27N 32°05' W 081°04'0 0.0
2018-Jul-16 00:59N 32°05' W 081°04'3 5.0
2018-Jul-16 00:25N 32°06' W 081°07'0 0.0
2018-Jul-15 23:43N 32°06' W 081°07'0 0.7
2018-Jul-15 23:29N 32°06' W 081°07'2 5.1
2018-Jul-15 23:00N 32°05' W 081°04'0 0.7
2018-Jul-15 22:29N 32°05' W 081°04'0 0.0
2018-Jul-15 21:53N 32°05' W 081°04'0 0.0
2018-Jul-15 21:29N 32°05' W 081°04'0 0.0
2018-Jul-15 20:59N 32°05' W 081°04'0 0.0
2018-Jul-15 20:17N 32°05' W 081°04'0 0.0
2018-Jul-15 19:59N 32°05' W 081°04'0 0.0
2018-Jul-15 19:29N 32°05' W 081°04'0 0.0
2018-Jul-15 18:59N 32°05' W 081°04'0 0.0
2018-Jul-15 18:29N 32°05' W 081°04'0 0.0
2018-Jul-15 17:59N 32°05' W 081°04'0 0.0
2018-Jul-15 17:29N 32°05' W 081°04'1 2.5
2018-Jul-15 17:00N 32°05' W 081°05'4 6.5
2018-Jul-15 16:21N 32°08' W 081°08'1 3.0
2018-Jul-15 15:57N 32°07' W 081°08'2 4.9
2018-Jul-15 15:30N 32°05' W 081°06'3 5.4
2018-Jul-15 15:00N 32°05' W 081°03'0 0.1
2018-Jul-15 14:30N 32°05' W 081°03'1 1.4
2018-Jul-15 14:00N 32°05' W 081°04'0 0.0
2018-Jul-15 13:16N 32°05' W 081°04'0 0.0
2018-Jul-15 12:58N 32°05' W 081°04'0 0.0
2018-Jul-15 12:28N 32°05' W 081°04'0 0.0
2018-Jul-15 11:58N 32°05' W 081°04'0 0.0
2018-Jul-15 11:22N 32°05' W 081°04'0 0.0
2018-Jul-15 10:58N 32°05' W 081°04'0 0.0
2018-Jul-15 10:22N 32°05' W 081°04'0 0.0
2018-Jul-15 09:58N 32°05' W 081°04'0 0.0
2018-Jul-15 09:22N 32°05' W 081°04'0 0.0
2018-Jul-15 08:58N 32°05' W 081°04'0 0.0
2018-Jul-15 08:28N 32°05' W 081°04'0 0.0
2018-Jul-15 07:58N 32°05' W 081°04'0 0.0
2018-Jul-15 07:22N 32°05' W 081°04'0 0.0
2018-Jul-15 06:52N 32°05' W 081°04'0 0.0
2018-Jul-15 06:20N 32°05' W 081°04'3 9.7
2018-Jul-15 06:00N 32°06' W 081°07'1 2.4
2018-Jul-15 05:26N 32°07' W 081°08'0 0.0
2018-Jul-15 04:55N 32°07' W 081°08'0 0.0
2018-Jul-15 04:25N 32°07' W 081°08'0 0.0
2018-Jul-15 03:55N 32°07' W 081°08'0 0.0
2018-Jul-15 03:25N 32°07' W 081°08'0 0.0
2018-Jul-15 02:55N 32°07' W 081°08'0 0.0
2018-Jul-15 02:25N 32°07' W 081°08'0 0.4
2018-Jul-15 02:00N 32°08' W 081°08'0 0.3
2018-Jul-15 01:21N 32°07' W 081°08'0 0.3
2018-Jul-15 00:50N 32°07' W 081°08'0 0.0
2018-Jul-15 00:26N 32°07' W 081°08'0 0.7
2018-Jul-15 00:00N 32°08' W 081°08'0 0.5
2018-Jul-14 23:27N 32°08' W 081°08'0 0.0
2018-Jul-14 22:57N 32°08' W 081°08'0 0.5
2018-Jul-14 22:29N 32°08' W 081°08'0 0.2
2018-Jul-14 21:57N 32°08' W 081°09'4 8.2
2018-Jul-14 21:30N 32°05' W 081°06'2 3.1
2018-Jul-14 20:56N 32°05' W 081°04'0 0.0
2018-Jul-14 20:20N 32°05' W 081°04'0 0.0
2018-Jul-14 19:56N 32°05' W 081°04'0 0.0
2018-Jul-14 19:26N 32°05' W 081°04'0 0.0
2018-Jul-14 18:56N 32°05' W 081°04'0 0.0
2018-Jul-14 18:26N 32°05' W 081°04'0 0.0
2018-Jul-14 17:56N 32°05' W 081°04'0 0.0
2018-Jul-14 17:26N 32°05' W 081°04'0 0.0
2018-Jul-14 16:56N 32°05' W 081°04'2 4.8
2018-Jul-14 16:29N 32°06' W 081°06'2 4.3
2018-Jul-14 15:57N 32°07' W 081°08'0 0.4
2018-Jul-14 15:30N 32°07' W 081°08'2 4.0
2018-Jul-14 15:00N 32°06' W 081°06'0 0.1
2018-Jul-14 13:57N 32°06' W 081°06'0 0.0
2018-Jul-14 13:21N 32°06' W 081°06'0 0.0
2018-Jul-14 12:57N 32°06' W 081°06'0 0.0
2018-Jul-14 12:27N 32°06' W 081°06'0 0.0
2018-Jul-14 11:57N 32°06' W 081°06'2 5.2
2018-Jul-14 11:30N 32°07' W 081°08'0 0.2
2018-Jul-14 10:59N 32°08' W 081°08'1 1.2
2018-Jul-14 10:30N 32°08' W 081°08'3 5.2
2018-Jul-14 10:00N 32°06' W 081°07'3 6.0
2018-Jul-14 09:30N 32°05' W 081°03'0 0.8
2018-Jul-14 08:59N 32°05' W 081°04'0 0.0
2018-Jul-14 08:27N 32°05' W 081°04'0 0.0
2018-Jul-14 07:57N 32°05' W 081°04'0 0.0
2018-Jul-14 07:27N 32°05' W 081°04'0 0.0
2018-Jul-14 06:51N 32°05' W 081°04'0 0.0
2018-Jul-14 06:27N 32°05' W 081°04'0 0.0
2018-Jul-14 05:57N 32°05' W 081°04'0 0.0
2018-Jul-14 05:09N 32°05' W 081°04'0 0.0
2018-Jul-14 04:57N 32°05' W 081°04'0 0.0
2018-Jul-14 04:27N 32°05' W 081°04'0 0.0
2018-Jul-14 03:57N 32°05' W 081°04'0 0.0
2018-Jul-14 03:27N 32°05' W 081°04'0 0.0
2018-Jul-14 02:57N 32°05' W 081°04'0 0.0
2018-Jul-14 02:21N 32°05' W 081°04'0 0.0
2018-Jul-14 01:39N 32°05' W 081°04'0 0.0
2018-Jul-14 01:21N 32°05' W 081°04'0 0.0
2018-Jul-14 00:51N 32°05' W 081°04'0 0.0
2018-Jul-14 00:27N 32°05' W 081°04'0 0.0
2018-Jul-13 23:51N 32°05' W 081°04'0 0.0
2018-Jul-13 23:25N 32°05' W 081°04'2 6.0
2018-Jul-13 23:00N 32°06' W 081°07'2 4.7
2018-Jul-13 22:30N 32°08' W 081°08'0 0.0
2018-Jul-13 21:57N 32°08' W 081°08'3 7.3
2018-Jul-13 21:30N 32°05' W 081°06'2 2.9
2018-Jul-13 20:55N 32°05' W 081°04'0 0.0
2018-Jul-13 20:27N 32°05' W 081°04'0 0.0
2018-Jul-13 19:57N 32°05' W 081°04'0 0.0
2018-Jul-13 19:27N 32°05' W 081°04'0 0.0
2018-Jul-13 18:45N 32°05' W 081°04'0 0.0
2018-Jul-13 18:27N 32°05' W 081°04'0 0.0
2018-Jul-13 17:57N 32°05' W 081°04'0 0.0
2018-Jul-13 17:27N 32°05' W 081°04'0 0.0
2018-Jul-13 16:57N 32°05' W 081°04'0 0.0
2018-Jul-13 16:26N 32°05' W 081°04'4 8.7
2018-Jul-13 16:00N 32°07' W 081°08'1 1.6
2018-Jul-13 15:14N 32°08' W 081°08'0 1.2
2018-Jul-13 15:01N 32°08' W 081°08'4 4.2
2018-Jul-13 14:00N 32°05' W 081°05'1 1.3
2018-Jul-13 13:25N 32°05' W 081°04'0 0.0
2018-Jul-13 12:55N 32°05' W 081°04'0 0.0
2018-Jul-13 12:19N 32°05' W 081°04'0 0.0
2018-Jul-13 11:55N 32°05' W 081°04'0 0.0
2018-Jul-13 11:19N 32°05' W 081°04'0 0.0
2018-Jul-13 10:49N 32°05' W 081°04'0 0.5
2018-Jul-13 10:30N 32°05' W 081°04'1 1.5
2018-Jul-13 09:53N 32°05' W 081°03'2 6.0
2018-Jul-13 09:29N 32°05' W 081°06'4 3.9
2018-Jul-13 08:31N 32°08' W 081°09'0 0.1
2018-Jul-13 08:25N 32°08' W 081°09'0 0.0
2018-Jul-13 07:55N 32°08' W 081°09'0 0.0
2018-Jul-13 07:27N 32°08' W 081°09'0 0.6
2018-Jul-13 07:00N 32°08' W 081°08'0 0.7
2018-Jul-13 06:17N 32°07' W 081°08'0 0.4
2018-Jul-13 06:00N 32°07' W 081°08'2 4.5
2018-Jul-13 05:30N 32°06' W 081°06'2 4.2
2018-Jul-13 05:00N 32°07' W 081°08'1 2.1
2018-Jul-13 04:25N 32°08' W 081°09'3 6.1
2018-Jul-13 04:00N 32°06' W 081°07'3 5.7
2018-Jul-13 03:29N 32°05' W 081°04'0 0.0
2018-Jul-13 02:53N 32°05' W 081°04'0 0.0
2018-Jul-13 02:28N 32°05' W 081°04'0 0.0
2018-Jul-13 01:34N 32°05' W 081°04'0 0.0
2018-Jul-13 01:28N 32°05' W 081°04'0 0.0
2018-Jul-13 00:58N 32°05' W 081°04'0 0.0
2018-Jul-13 00:28N 32°05' W 081°04'0 0.0
2018-Jul-12 23:58N 32°05' W 081°04'0 0.0
2018-Jul-12 23:28N 32°05' W 081°04'0 0.0
2018-Jul-12 22:58N 32°05' W 081°04'0 0.0
2018-Jul-12 22:16N 32°05' W 081°04'0 0.0
2018-Jul-12 21:58N 32°05' W 081°04'0 0.0
2018-Jul-12 21:22N 32°05' W 081°04'0 0.0
2018-Jul-12 20:58N 32°05' W 081°04'0 0.0
2018-Jul-12 20:22N 32°05' W 081°04'0 0.0
2018-Jul-12 19:58N 32°05' W 081°04'0 0.0
2018-Jul-12 19:16N 32°05' W 081°04'0 0.0
2018-Jul-12 18:58N 32°05' W 081°04'0 0.0
2018-Jul-12 18:28N 32°05' W 081°04'0 0.0
2018-Jul-12 17:52N 32°05' W 081°04'0 0.0
2018-Jul-12 17:28N 32°05' W 081°04'0 0.0
2018-Jul-12 16:52N 32°05' W 081°04'0 0.0
2018-Jul-12 16:28N 32°05' W 081°04'0 0.0
2018-Jul-12 15:59N 32°05' W 081°04'4 8.3
2018-Jul-12 15:30N 32°07' W 081°08'1 1.2
2018-Jul-12 14:53N 32°08' W 081°08'0 0.4
2018-Jul-12 14:30N 32°08' W 081°08'2 4.1
2018-Jul-12 14:01N 32°06' W 081°07'1 1.1
2018-Jul-12 13:21N 32°06' W 081°06'0 0.0
2018-Jul-12 12:57N 32°06' W 081°06'0 0.0
2018-Jul-12 12:15N 32°06' W 081°06'0 0.0
2018-Jul-12 11:57N 32°06' W 081°06'0 0.0
2018-Jul-12 11:23N 32°06' W 081°06'2 4.9
2018-Jul-12 10:57N 32°07' W 081°08'1 1.2
2018-Jul-12 10:29N 32°07' W 081°07'2 4.3
2018-Jul-12 10:00N 32°05' W 081°06'1 1.5
2018-Jul-12 09:30N 32°06' W 081°06'2 1.4
2018-Jul-12 08:17N 32°07' W 081°08'0 0.0
2018-Jul-12 07:59N 32°07' W 081°08'0 0.0
2018-Jul-12 07:29N 32°07' W 081°08'0 0.0
2018-Jul-12 06:23N 32°07' W 081°08'0 0.0
2018-Jul-12 04:47N 32°07' W 081°08'0 0.0
2018-Jul-12 04:29N 32°07' W 081°08'0 0.0
2018-Jul-12 03:53N 32°07' W 081°08'0 0.0
2018-Jul-12 03:25N 32°07' W 081°08'0 0.0
2018-Jul-12 02:55N 32°07' W 081°08'0 0.0
2018-Jul-12 02:19N 32°07' W 081°08'1 3.4
2018-Jul-12 02:00N 32°08' W 081°08'0 0.1
2018-Jul-12 01:14N 32°08' W 081°08'1 3.2
2018-Jul-12 01:00N 32°07' W 081°08'3 5.4
2018-Jul-12 00:30N 32°05' W 081°06'3 5.9
2018-Jul-12 00:00N 32°05' W 081°02'1 1.9
2018-Jul-11 23:25N 32°05' W 081°04'0 0.0
2018-Jul-11 22:51N 32°05' W 081°04'0 0.0
2018-Jul-11 22:21N 32°05' W 081°04'0 0.0
2018-Jul-11 21:57N 32°05' W 081°04'0 0.0
2018-Jul-11 21:27N 32°05' W 081°04'0 0.0
2018-Jul-11 20:57N 32°05' W 081°04'0 0.0
2018-Jul-11 20:27N 32°05' W 081°04'0 0.0
2018-Jul-11 19:57N 32°05' W 081°04'0 0.0
2018-Jul-11 19:27N 32°05' W 081°04'0 0.0
2018-Jul-11 18:51N 32°05' W 081°04'0 0.0
2018-Jul-11 18:26N 32°05' W 081°04'0 0.0
2018-Jul-11 17:56N 32°05' W 081°04'0 0.0
2018-Jul-11 17:20N 32°05' W 081°04'0 0.0
2018-Jul-11 16:56N 32°05' W 081°04'0 0.0
2018-Jul-11 16:26N 32°05' W 081°04'0 0.0
2018-Jul-11 15:56N 32°05' W 081°04'0 0.0
2018-Jul-11 15:26N 32°05' W 081°04'0 0.0
2018-Jul-11 14:56N 32°05' W 081°04'0 0.0
2018-Jul-11 14:26N 32°05' W 081°04'0 0.0
2018-Jul-11 13:56N 32°05' W 081°04'  

Dump ship's entire track history